sensor_id;sensor_type;location;lat;lon;timestamp;P1;durP1;ratioP1;P2;durP2;ratioP2
14165;SDS011;7162;52.422;13.754;2023-02-23T00:01:02;16.60;;;5.60;;
14165;SDS011;7162;52.422;13.754;2023-02-23T00:03:36;17.83;;;6.27;;
14165;SDS011;7162;52.422;13.754;2023-02-23T00:06:04;14.97;;;5.30;;
14165;SDS011;7162;52.422;13.754;2023-02-23T00:08:31;15.37;;;5.30;;
14165;SDS011;7162;52.422;13.754;2023-02-23T00:11:00;19.10;;;5.77;;
14165;SDS011;7162;52.422;13.754;2023-02-23T00:13:27;15.43;;;5.90;;
14165;SDS011;7162;52.422;13.754;2023-02-23T00:15:54;7.93;;;4.60;;
14165;SDS011;7162;52.422;13.754;2023-02-23T00:18:21;14.20;;;5.43;;
14165;SDS011;7162;52.422;13.754;2023-02-23T00:20:54;18.10;;;5.70;;
14165;SDS011;7162;52.422;13.754;2023-02-23T00:23:22;13.13;;;5.23;;
14165;SDS011;7162;52.422;13.754;2023-02-23T00:25:51;13.40;;;5.57;;
14165;SDS011;7162;52.422;13.754;2023-02-23T00:28:18;16.87;;;5.50;;
14165;SDS011;7162;52.422;13.754;2023-02-23T00:30:48;11.47;;;5.90;;
14165;SDS011;7162;52.422;13.754;2023-02-23T00:33:15;26.10;;;5.67;;
14165;SDS011;7162;52.422;13.754;2023-02-23T00:35:42;12.40;;;5.00;;
14165;SDS011;7162;52.422;13.754;2023-02-23T00:38:10;13.20;;;5.17;;
14165;SDS011;7162;52.422;13.754;2023-02-23T00:40:38;14.17;;;5.80;;
14165;SDS011;7162;52.422;13.754;2023-02-23T00:43:12;17.83;;;6.70;;
14165;SDS011;7162;52.422;13.754;2023-02-23T00:45:39;13.77;;;5.80;;
14165;SDS011;7162;52.422;13.754;2023-02-23T00:48:06;17.63;;;5.83;;
14165;SDS011;7162;52.422;13.754;2023-02-23T00:50:34;11.67;;;5.67;;
14165;SDS011;7162;52.422;13.754;2023-02-23T00:53:03;17.17;;;6.50;;
14165;SDS011;7162;52.422;13.754;2023-02-23T00:55:31;16.30;;;5.87;;
14165;SDS011;7162;52.422;13.754;2023-02-23T00:57:58;15.90;;;7.20;;
14165;SDS011;7162;52.422;13.754;2023-02-23T01:00:28;16.40;;;5.73;;
14165;SDS011;7162;52.422;13.754;2023-02-23T01:02:55;12.70;;;5.37;;
14165;SDS011;7162;52.422;13.754;2023-02-23T01:05:22;16.27;;;5.90;;
14165;SDS011;7162;52.422;13.754;2023-02-23T01:07:49;12.70;;;5.20;;
14165;SDS011;7162;52.422;13.754;2023-02-23T01:10:17;13.73;;;5.43;;
14165;SDS011;7162;52.422;13.754;2023-02-23T01:12:49;13.77;;;5.67;;
14165;SDS011;7162;52.422;13.754;2023-02-23T01:15:17;16.97;;;5.77;;
14165;SDS011;7162;52.422;13.754;2023-02-23T01:17:44;11.90;;;5.23;;
14165;SDS011;7162;52.422;13.754;2023-02-23T01:20:12;14.47;;;5.90;;
14165;SDS011;7162;52.422;13.754;2023-02-23T01:22:42;11.47;;;4.70;;
14165;SDS011;7162;52.422;13.754;2023-02-23T01:25:09;26.13;;;7.17;;
14165;SDS011;7162;52.422;13.754;2023-02-23T01:27:37;10.13;;;5.57;;
14165;SDS011;7162;52.422;13.754;2023-02-23T01:30:06;15.00;;;6.23;;
14165;SDS011;7162;52.422;13.754;2023-02-23T01:32:34;12.47;;;5.53;;
14165;SDS011;7162;52.422;13.754;2023-02-23T01:35:02;14.17;;;5.53;;
14165;SDS011;7162;52.422;13.754;2023-02-23T01:37:29;15.00;;;6.20;;
14165;SDS011;7162;52.422;13.754;2023-02-23T01:39:57;15.27;;;5.73;;
14165;SDS011;7162;52.422;13.754;2023-02-23T01:42:24;12.70;;;5.27;;
14165;SDS011;7162;52.422;13.754;2023-02-23T01:47:50;15.93;;;6.40;;
14165;SDS011;7162;52.422;13.754;2023-02-23T01:50:18;12.57;;;5.43;;
14165;SDS011;7162;52.422;13.754;2023-02-23T01:52:45;14.17;;;6.50;;
14165;SDS011;7162;52.422;13.754;2023-02-23T01:55:13;17.00;;;5.87;;
14165;SDS011;7162;52.422;13.754;2023-02-23T01:57:47;14.63;;;6.23;;
14165;SDS011;7162;52.422;13.754;2023-02-23T02:00:15;20.67;;;6.80;;
14165;SDS011;7162;52.422;13.754;2023-02-23T02:02:44;17.63;;;6.40;;
14165;SDS011;7162;52.422;13.754;2023-02-23T02:05:14;17.53;;;6.50;;
14165;SDS011;7162;52.422;13.754;2023-02-23T02:07:42;13.50;;;6.17;;
14165;SDS011;7162;52.422;13.754;2023-02-23T02:10:12;17.10;;;7.00;;
14165;SDS011;7162;52.422;13.754;2023-02-23T02:13:04;19.33;;;6.10;;
14165;SDS011;7162;52.422;13.754;2023-02-23T02:15:33;17.23;;;6.03;;
14165;SDS011;7162;52.422;13.754;2023-02-23T02:18:04;14.33;;;6.20;;
14165;SDS011;7162;52.422;13.754;2023-02-23T02:20:51;15.53;;;5.73;;
14165;SDS011;7162;52.422;13.754;2023-02-23T02:23:36;18.77;;;5.23;;
14165;SDS011;7162;52.422;13.754;2023-02-23T02:26:13;18.70;;;6.63;;
14165;SDS011;7162;52.422;13.754;2023-02-23T02:28:52;12.27;;;6.00;;
14165;SDS011;7162;52.422;13.754;2023-02-23T02:31:39;18.33;;;6.50;;
14165;SDS011;7162;52.422;13.754;2023-02-23T02:37:01;16.83;;;6.00;;
14165;SDS011;7162;52.422;13.754;2023-02-23T02:39:30;12.80;;;5.83;;
14165;SDS011;7162;52.422;13.754;2023-02-23T02:42:04;19.47;;;6.80;;
14165;SDS011;7162;52.422;13.754;2023-02-23T02:44:34;26.00;;;6.83;;
14165;SDS011;7162;52.422;13.754;2023-02-23T02:47:06;22.87;;;6.17;;
14165;SDS011;7162;52.422;13.754;2023-02-23T02:49:35;13.50;;;5.63;;
14165;SDS011;7162;52.422;13.754;2023-02-23T02:52:09;13.33;;;6.43;;
14165;SDS011;7162;52.422;13.754;2023-02-23T02:54:39;21.40;;;7.17;;
14165;SDS011;7162;52.422;13.754;2023-02-23T02:57:06;14.10;;;5.77;;
14165;SDS011;7162;52.422;13.754;2023-02-23T02:59:41;19.20;;;7.07;;
14165;SDS011;7162;52.422;13.754;2023-02-23T03:02:26;18.97;;;6.03;;
14165;SDS011;7162;52.422;13.754;2023-02-23T03:05:12;19.33;;;6.27;;
14165;SDS011;7162;52.422;13.754;2023-02-23T03:08:01;19.33;;;6.77;;
14165;SDS011;7162;52.422;13.754;2023-02-23T03:10:51;20.57;;;6.47;;
14165;SDS011;7162;52.422;13.754;2023-02-23T03:13:41;17.87;;;7.07;;
14165;SDS011;7162;52.422;13.754;2023-02-23T03:16:33;11.83;;;6.17;;
14165;SDS011;7162;52.422;13.754;2023-02-23T03:19:21;18.70;;;6.77;;
14165;SDS011;7162;52.422;13.754;2023-02-23T03:22:11;19.53;;;6.20;;
14165;SDS011;7162;52.422;13.754;2023-02-23T03:24:59;13.17;;;5.50;;
14165;SDS011;7162;52.422;13.754;2023-02-23T03:27:47;13.67;;;5.27;;
14165;SDS011;7162;52.422;13.754;2023-02-23T03:30:36;15.97;;;5.33;;
14165;SDS011;7162;52.422;13.754;2023-02-23T03:33:26;15.37;;;5.37;;
14165;SDS011;7162;52.422;13.754;2023-02-23T03:36:14;17.47;;;6.23;;
14165;SDS011;7162;52.422;13.754;2023-02-23T03:39:00;12.80;;;5.57;;
14165;SDS011;7162;52.422;13.754;2023-02-23T03:41:49;25.43;;;6.83;;
14165;SDS011;7162;52.422;13.754;2023-02-23T03:44:36;21.13;;;6.47;;
14165;SDS011;7162;52.422;13.754;2023-02-23T03:47:23;13.90;;;6.83;;
14165;SDS011;7162;52.422;13.754;2023-02-23T03:50:11;17.53;;;5.87;;
14165;SDS011;7162;52.422;13.754;2023-02-23T03:52:58;13.63;;;5.80;;
14165;SDS011;7162;52.422;13.754;2023-02-23T03:55:44;13.10;;;6.50;;
14165;SDS011;7162;52.422;13.754;2023-02-23T03:58:34;18.23;;;5.67;;
14165;SDS011;7162;52.422;13.754;2023-02-23T04:01:20;14.23;;;5.60;;
14165;SDS011;7162;52.422;13.754;2023-02-23T04:04:05;11.50;;;5.60;;
14165;SDS011;7162;52.422;13.754;2023-02-23T04:06:51;12.50;;;6.00;;
14165;SDS011;7162;52.422;13.754;2023-02-23T04:09:37;18.37;;;4.70;;
14165;SDS011;7162;52.422;13.754;2023-02-23T04:12:23;18.60;;;5.57;;
14165;SDS011;7162;52.422;13.754;2023-02-23T04:15:11;13.77;;;5.10;;
14165;SDS011;7162;52.422;13.754;2023-02-23T04:17:40;16.70;;;6.60;;
14165;SDS011;7162;52.422;13.754;2023-02-23T04:20:08;10.73;;;5.40;;
14165;SDS011;7162;52.422;13.754;2023-02-23T04:22:35;13.63;;;5.50;;
14165;SDS011;7162;52.422;13.754;2023-02-23T04:25:02;20.30;;;6.70;;
14165;SDS011;7162;52.422;13.754;2023-02-23T04:27:32;11.97;;;5.43;;
14165;SDS011;7162;52.422;13.754;2023-02-23T04:29:59;13.00;;;5.67;;
14165;SDS011;7162;52.422;13.754;2023-02-23T04:32:29;14.50;;;5.20;;
14165;SDS011;7162;52.422;13.754;2023-02-23T04:34:56;23.83;;;5.90;;
14165;SDS011;7162;52.422;13.754;2023-02-23T04:37:23;23.40;;;5.63;;
14165;SDS011;7162;52.422;13.754;2023-02-23T04:39:50;11.93;;;5.60;;
14165;SDS011;7162;52.422;13.754;2023-02-23T04:42:17;18.70;;;5.47;;
14165;SDS011;7162;52.422;13.754;2023-02-23T04:44:45;21.77;;;6.47;;
14165;SDS011;7162;52.422;13.754;2023-02-23T04:47:13;20.50;;;5.17;;
14165;SDS011;7162;52.422;13.754;2023-02-23T04:49:42;19.20;;;5.80;;
14165;SDS011;7162;52.422;13.754;2023-02-23T04:52:09;11.17;;;5.53;;
14165;SDS011;7162;52.422;13.754;2023-02-23T04:54:36;12.53;;;5.87;;
14165;SDS011;7162;52.422;13.754;2023-02-23T04:57:04;16.67;;;6.10;;
14165;SDS011;7162;52.422;13.754;2023-02-23T04:59:31;16.57;;;5.77;;
14165;SDS011;7162;52.422;13.754;2023-02-23T05:01:58;26.80;;;5.83;;
14165;SDS011;7162;52.422;13.754;2023-02-23T05:04:25;24.20;;;5.70;;
14165;SDS011;7162;52.422;13.754;2023-02-23T05:06:53;12.77;;;5.63;;
14165;SDS011;7162;52.422;13.754;2023-02-23T05:09:20;23.20;;;5.90;;
14165;SDS011;7162;52.422;13.754;2023-02-23T05:11:47;16.10;;;5.83;;
14165;SDS011;7162;52.422;13.754;2023-02-23T05:14:14;15.53;;;6.40;;
14165;SDS011;7162;52.422;13.754;2023-02-23T05:16:41;15.33;;;5.83;;
14165;SDS011;7162;52.422;13.754;2023-02-23T05:19:08;17.13;;;5.80;;
14165;SDS011;7162;52.422;13.754;2023-02-23T05:21:36;18.50;;;7.13;;
14165;SDS011;7162;52.422;13.754;2023-02-23T05:24:05;15.23;;;5.90;;
14165;SDS011;7162;52.422;13.754;2023-02-23T05:26:32;15.50;;;5.70;;
14165;SDS011;7162;52.422;13.754;2023-02-23T05:28:59;21.63;;;5.70;;
14165;SDS011;7162;52.422;13.754;2023-02-23T05:31:26;20.33;;;6.60;;
14165;SDS011;7162;52.422;13.754;2023-02-23T05:33:53;13.50;;;6.07;;
14165;SDS011;7162;52.422;13.754;2023-02-23T05:36:20;17.70;;;6.00;;
14165;SDS011;7162;52.422;13.754;2023-02-23T05:38:47;12.17;;;5.80;;
14165;SDS011;7162;52.422;13.754;2023-02-23T05:41:16;11.83;;;5.57;;
14165;SDS011;7162;52.422;13.754;2023-02-23T05:43:44;11.10;;;5.23;;
14165;SDS011;7162;52.422;13.754;2023-02-23T05:46:12;18.53;;;6.27;;
14165;SDS011;7162;52.422;13.754;2023-02-23T05:48:40;15.53;;;5.70;;
14165;SDS011;7162;52.422;13.754;2023-02-23T05:51:08;11.17;;;5.03;;
14165;SDS011;7162;52.422;13.754;2023-02-23T05:53:35;15.50;;;5.30;;
14165;SDS011;7162;52.422;13.754;2023-02-23T05:56:03;21.07;;;5.53;;
14165;SDS011;7162;52.422;13.754;2023-02-23T05:58:31;14.03;;;6.43;;
14165;SDS011;7162;52.422;13.754;2023-02-23T06:00:58;18.20;;;5.73;;
14165;SDS011;7162;52.422;13.754;2023-02-23T06:03:25;15.10;;;6.60;;
14165;SDS011;7162;52.422;13.754;2023-02-23T06:05:53;18.33;;;5.27;;
14165;SDS011;7162;52.422;13.754;2023-02-23T06:08:21;18.77;;;6.00;;
14165;SDS011;7162;52.422;13.754;2023-02-23T06:10:49;11.83;;;4.40;;
14165;SDS011;7162;52.422;13.754;2023-02-23T06:13:17;9.53;;;4.40;;
14165;SDS011;7162;52.422;13.754;2023-02-23T06:15:49;14.67;;;5.67;;
14165;SDS011;7162;52.422;13.754;2023-02-23T06:18:25;11.23;;;5.90;;
14165;SDS011;7162;52.422;13.754;2023-02-23T06:20:54;14.93;;;5.70;;
14165;SDS011;7162;52.422;13.754;2023-02-23T06:23:34;9.97;;;4.37;;
14165;SDS011;7162;52.422;13.754;2023-02-23T06:26:16;9.93;;;4.60;;
14165;SDS011;7162;52.422;13.754;2023-02-23T06:28:45;13.50;;;5.50;;
14165;SDS011;7162;52.422;13.754;2023-02-23T06:31:51;13.30;;;5.67;;
14165;SDS011;7162;52.422;13.754;2023-02-23T06:34:19;10.43;;;5.47;;
14165;SDS011;7162;52.422;13.754;2023-02-23T06:36:46;16.27;;;6.70;;
14165;SDS011;7162;52.422;13.754;2023-02-23T06:39:13;13.43;;;5.40;;
14165;SDS011;7162;52.422;13.754;2023-02-23T06:41:46;12.53;;;5.57;;
14165;SDS011;7162;52.422;13.754;2023-02-23T06:44:29;11.83;;;5.03;;
14165;SDS011;7162;52.422;13.754;2023-02-23T06:55:38;19.27;;;6.50;;
14165;SDS011;7162;52.422;13.754;2023-02-23T06:58:05;15.67;;;6.00;;
14165;SDS011;7162;52.422;13.754;2023-02-23T07:00:35;15.17;;;5.67;;
14165;SDS011;7162;52.422;13.754;2023-02-23T07:03:03;11.67;;;5.47;;
14165;SDS011;7162;52.422;13.754;2023-02-23T07:05:30;21.37;;;7.00;;
14165;SDS011;7162;52.422;13.754;2023-02-23T07:07:58;18.23;;;6.30;;
14165;SDS011;7162;52.422;13.754;2023-02-23T07:10:25;17.30;;;6.20;;
14165;SDS011;7162;52.422;13.754;2023-02-23T07:12:56;13.07;;;5.63;;
14165;SDS011;7162;52.422;13.754;2023-02-23T07:15:23;22.77;;;6.60;;
14165;SDS011;7162;52.422;13.754;2023-02-23T07:17:50;13.17;;;6.30;;
14165;SDS011;7162;52.422;13.754;2023-02-23T07:20:18;16.07;;;5.50;;
14165;SDS011;7162;52.422;13.754;2023-02-23T07:22:45;20.43;;;5.80;;
14165;SDS011;7162;52.422;13.754;2023-02-23T07:25:12;20.70;;;6.07;;
14165;SDS011;7162;52.422;13.754;2023-02-23T07:27:40;11.90;;;5.03;;
14165;SDS011;7162;52.422;13.754;2023-02-23T07:30:11;12.53;;;5.43;;
14165;SDS011;7162;52.422;13.754;2023-02-23T07:32:39;17.90;;;5.97;;
14165;SDS011;7162;52.422;13.754;2023-02-23T07:35:07;12.80;;;5.97;;
14165;SDS011;7162;52.422;13.754;2023-02-23T07:37:38;19.60;;;6.30;;
14165;SDS011;7162;52.422;13.754;2023-02-23T07:40:06;21.00;;;5.80;;
14165;SDS011;7162;52.422;13.754;2023-02-23T07:42:35;13.40;;;5.67;;
14165;SDS011;7162;52.422;13.754;2023-02-23T07:45:02;19.93;;;6.57;;
14165;SDS011;7162;52.422;13.754;2023-02-23T07:47:31;23.63;;;7.07;;
14165;SDS011;7162;52.422;13.754;2023-02-23T07:49:58;16.37;;;6.90;;
14165;SDS011;7162;52.422;13.754;2023-02-23T07:52:26;15.07;;;6.23;;
14165;SDS011;7162;52.422;13.754;2023-02-23T07:54:53;13.10;;;6.47;;
14165;SDS011;7162;52.422;13.754;2023-02-23T07:57:21;18.93;;;7.20;;
14165;SDS011;7162;52.422;13.754;2023-02-23T07:59:48;19.33;;;6.77;;
14165;SDS011;7162;52.422;13.754;2023-02-23T08:02:15;22.37;;;5.90;;
14165;SDS011;7162;52.422;13.754;2023-02-23T08:04:44;21.10;;;7.00;;
14165;SDS011;7162;52.422;13.754;2023-02-23T08:07:11;12.63;;;6.00;;
14165;SDS011;7162;52.422;13.754;2023-02-23T08:09:39;17.73;;;5.67;;
14165;SDS011;7162;52.422;13.754;2023-02-23T08:12:06;15.57;;;6.27;;
14165;SDS011;7162;52.422;13.754;2023-02-23T08:14:34;11.03;;;5.73;;
14165;SDS011;7162;52.422;13.754;2023-02-23T08:17:02;21.20;;;6.80;;
14165;SDS011;7162;52.422;13.754;2023-02-23T08:19:29;21.70;;;7.47;;
14165;SDS011;7162;52.422;13.754;2023-02-23T08:21:58;15.43;;;6.40;;
14165;SDS011;7162;52.422;13.754;2023-02-23T08:24:25;21.30;;;7.00;;
14165;SDS011;7162;52.422;13.754;2023-02-23T08:26:53;24.30;;;6.80;;
14165;SDS011;7162;52.422;13.754;2023-02-23T08:29:20;17.90;;;6.33;;
14165;SDS011;7162;52.422;13.754;2023-02-23T08:31:47;18.57;;;6.87;;
14165;SDS011;7162;52.422;13.754;2023-02-23T08:34:15;14.80;;;6.00;;
14165;SDS011;7162;52.422;13.754;2023-02-23T08:36:42;15.57;;;6.30;;
14165;SDS011;7162;52.422;13.754;2023-02-23T08:39:11;16.90;;;6.10;;
14165;SDS011;7162;52.422;13.754;2023-02-23T08:41:41;15.90;;;6.43;;
14165;SDS011;7162;52.422;13.754;2023-02-23T08:44:23;16.53;;;6.53;;
14165;SDS011;7162;52.422;13.754;2023-02-23T08:46:53;15.73;;;6.40;;
14165;SDS011;7162;52.422;13.754;2023-02-23T08:49:22;18.03;;;7.13;;
14165;SDS011;7162;52.422;13.754;2023-02-23T08:51:49;15.20;;;6.57;;
14165;SDS011;7162;52.422;13.754;2023-02-23T08:54:17;16.80;;;6.33;;
14165;SDS011;7162;52.422;13.754;2023-02-23T08:56:45;15.50;;;6.93;;
14165;SDS011;7162;52.422;13.754;2023-02-23T08:59:12;17.73;;;6.03;;
14165;SDS011;7162;52.422;13.754;2023-02-23T09:01:39;20.50;;;6.37;;
14165;SDS011;7162;52.422;13.754;2023-02-23T09:04:08;15.07;;;6.17;;
14165;SDS011;7162;52.422;13.754;2023-02-23T09:06:35;21.83;;;7.60;;
14165;SDS011;7162;52.422;13.754;2023-02-23T09:09:02;12.90;;;6.27;;
14165;SDS011;7162;52.422;13.754;2023-02-23T09:11:31;19.43;;;7.30;;
14165;SDS011;7162;52.422;13.754;2023-02-23T09:13:58;20.83;;;6.47;;
14165;SDS011;7162;52.422;13.754;2023-02-23T09:16:25;18.17;;;6.57;;
14165;SDS011;7162;52.422;13.754;2023-02-23T09:18:53;16.60;;;7.03;;
14165;SDS011;7162;52.422;13.754;2023-02-23T09:21:23;15.80;;;6.83;;
14165;SDS011;7162;52.422;13.754;2023-02-23T09:23:51;18.00;;;7.20;;
14165;SDS011;7162;52.422;13.754;2023-02-23T09:26:20;21.50;;;7.00;;
14165;SDS011;7162;52.422;13.754;2023-02-23T09:28:48;14.10;;;6.10;;
14165;SDS011;7162;52.422;13.754;2023-02-23T09:31:16;17.67;;;6.93;;
14165;SDS011;7162;52.422;13.754;2023-02-23T09:33:44;11.37;;;6.30;;
14165;SDS011;7162;52.422;13.754;2023-02-23T09:36:12;15.37;;;6.50;;
14165;SDS011;7162;52.422;13.754;2023-02-23T09:38:41;16.17;;;6.50;;
14165;SDS011;7162;52.422;13.754;2023-02-23T09:41:21;19.90;;;6.77;;
14165;SDS011;7162;52.422;13.754;2023-02-23T09:43:54;16.47;;;6.53;;
14165;SDS011;7162;52.422;13.754;2023-02-23T09:46:25;15.23;;;7.13;;
14165;SDS011;7162;52.422;13.754;2023-02-23T09:48:58;15.60;;;6.50;;
14165;SDS011;7162;52.422;13.754;2023-02-23T09:51:27;20.90;;;6.80;;
14165;SDS011;7162;52.422;13.754;2023-02-23T09:53:55;20.57;;;8.60;;
14165;SDS011;7162;52.422;13.754;2023-02-23T09:56:24;24.53;;;8.17;;
14165;SDS011;7162;52.422;13.754;2023-02-23T09:58:57;23.90;;;7.87;;
14165;SDS011;7162;52.422;13.754;2023-02-23T10:01:47;16.30;;;7.07;;
14165;SDS011;7162;52.422;13.754;2023-02-23T10:04:17;14.17;;;6.20;;
14165;SDS011;7162;52.422;13.754;2023-02-23T10:06:47;20.87;;;6.97;;
14165;SDS011;7162;52.422;13.754;2023-02-23T10:09:17;17.43;;;7.10;;
14165;SDS011;7162;52.422;13.754;2023-02-23T10:11:48;24.20;;;6.60;;
14165;SDS011;7162;52.422;13.754;2023-02-23T10:14:24;15.17;;;6.30;;
14165;SDS011;7162;52.422;13.754;2023-02-23T10:16:59;17.27;;;6.50;;
14165;SDS011;7162;52.422;13.754;2023-02-23T10:19:31;19.00;;;6.37;;
14165;SDS011;7162;52.422;13.754;2023-02-23T10:22:00;18.40;;;7.27;;
14165;SDS011;7162;52.422;13.754;2023-02-23T10:24:28;16.03;;;6.80;;
14165;SDS011;7162;52.422;13.754;2023-02-23T10:26:57;16.30;;;7.00;;
14165;SDS011;7162;52.422;13.754;2023-02-23T10:29:27;14.43;;;6.17;;
14165;SDS011;7162;52.422;13.754;2023-02-23T10:31:57;12.10;;;7.03;;
14165;SDS011;7162;52.422;13.754;2023-02-23T10:34:26;20.90;;;7.60;;
14165;SDS011;7162;52.422;13.754;2023-02-23T10:36:57;20.10;;;7.53;;
14165;SDS011;7162;52.422;13.754;2023-02-23T10:39:24;16.97;;;6.80;;
14165;SDS011;7162;52.422;13.754;2023-02-23T10:41:52;23.60;;;6.77;;
14165;SDS011;7162;52.422;13.754;2023-02-23T10:44:20;15.73;;;7.37;;
14165;SDS011;7162;52.422;13.754;2023-02-23T10:46:50;18.67;;;6.70;;
14165;SDS011;7162;52.422;13.754;2023-02-23T10:49:22;16.77;;;7.13;;
14165;SDS011;7162;52.422;13.754;2023-02-23T10:51:50;14.93;;;6.87;;
14165;SDS011;7162;52.422;13.754;2023-02-23T10:54:33;14.40;;;7.10;;
14165;SDS011;7162;52.422;13.754;2023-02-23T10:57:00;15.87;;;6.27;;
14165;SDS011;7162;52.422;13.754;2023-02-23T10:59:27;19.97;;;7.80;;
14165;SDS011;7162;52.422;13.754;2023-02-23T11:01:55;14.87;;;8.27;;
14165;SDS011;7162;52.422;13.754;2023-02-23T11:04:24;20.97;;;7.90;;
14165;SDS011;7162;52.422;13.754;2023-02-23T11:06:52;18.67;;;8.07;;
14165;SDS011;7162;52.422;13.754;2023-02-23T11:09:31;22.13;;;8.60;;
14165;SDS011;7162;52.422;13.754;2023-02-23T11:11:59;25.10;;;7.50;;
14165;SDS011;7162;52.422;13.754;2023-02-23T11:14:28;15.00;;;7.83;;
14165;SDS011;7162;52.422;13.754;2023-02-23T11:16:57;13.77;;;7.10;;
14165;SDS011;7162;52.422;13.754;2023-02-23T11:19:26;18.13;;;7.80;;
14165;SDS011;7162;52.422;13.754;2023-02-23T11:21:55;19.93;;;7.47;;
14165;SDS011;7162;52.422;13.754;2023-02-23T11:24:25;19.43;;;8.80;;
14165;SDS011;7162;52.422;13.754;2023-02-23T11:26:55;15.03;;;6.50;;
14165;SDS011;7162;52.422;13.754;2023-02-23T11:29:24;26.27;;;8.27;;
14165;SDS011;7162;52.422;13.754;2023-02-23T11:31:53;20.77;;;7.80;;
14165;SDS011;7162;52.422;13.754;2023-02-23T11:34:26;23.70;;;7.73;;
14165;SDS011;7162;52.422;13.754;2023-02-23T11:36:59;19.60;;;8.13;;
14165;SDS011;7162;52.422;13.754;2023-02-23T11:39:27;21.60;;;7.90;;
14165;SDS011;7162;52.422;13.754;2023-02-23T11:42:05;19.50;;;8.03;;
14165;SDS011;7162;52.422;13.754;2023-02-23T11:44:35;23.43;;;8.20;;
14165;SDS011;7162;52.422;13.754;2023-02-23T11:47:02;20.00;;;8.70;;
14165;SDS011;7162;52.422;13.754;2023-02-23T11:49:31;17.97;;;7.63;;
14165;SDS011;7162;52.422;13.754;2023-02-23T11:52:00;17.27;;;7.70;;
14165;SDS011;7162;52.422;13.754;2023-02-23T11:54:27;27.13;;;8.40;;
14165;SDS011;7162;52.422;13.754;2023-02-23T11:56:55;17.67;;;7.90;;
14165;SDS011;7162;52.422;13.754;2023-02-23T11:59:26;21.27;;;9.00;;
14165;SDS011;7162;52.422;13.754;2023-02-23T12:01:55;21.90;;;8.60;;
14165;SDS011;7162;52.422;13.754;2023-02-23T12:04:26;21.47;;;8.37;;
14165;SDS011;7162;52.422;13.754;2023-02-23T12:06:56;19.87;;;8.10;;
14165;SDS011;7162;52.422;13.754;2023-02-23T12:09:43;18.93;;;8.83;;
14165;SDS011;7162;52.422;13.754;2023-02-23T12:12:13;20.70;;;8.13;;
14165;SDS011;7162;52.422;13.754;2023-02-23T12:14:43;19.40;;;7.73;;
14165;SDS011;7162;52.422;13.754;2023-02-23T12:17:15;23.33;;;9.50;;
14165;SDS011;7162;52.422;13.754;2023-02-23T12:19:45;21.67;;;8.63;;
14165;SDS011;7162;52.422;13.754;2023-02-23T12:22:15;24.33;;;9.33;;
14165;SDS011;7162;52.422;13.754;2023-02-23T12:24:45;24.03;;;9.60;;
14165;SDS011;7162;52.422;13.754;2023-02-23T12:27:14;28.77;;;8.70;;
14165;SDS011;7162;52.422;13.754;2023-02-23T12:29:52;18.20;;;8.77;;
14165;SDS011;7162;52.422;13.754;2023-02-23T12:32:23;18.83;;;8.47;;
14165;SDS011;7162;52.422;13.754;2023-02-23T12:34:51;22.10;;;9.40;;
14165;SDS011;7162;52.422;13.754;2023-02-23T12:37:26;23.53;;;9.30;;
14165;SDS011;7162;52.422;13.754;2023-02-23T12:39:55;16.63;;;7.80;;
14165;SDS011;7162;52.422;13.754;2023-02-23T12:42:24;25.07;;;9.73;;
14165;SDS011;7162;52.422;13.754;2023-02-23T12:44:52;26.50;;;9.43;;
14165;SDS011;7162;52.422;13.754;2023-02-23T12:47:21;22.73;;;9.53;;
14165;SDS011;7162;52.422;13.754;2023-02-23T12:49:50;24.30;;;8.90;;
14165;SDS011;7162;52.422;13.754;2023-02-23T12:52:19;21.97;;;9.73;;
14165;SDS011;7162;52.422;13.754;2023-02-23T12:54:48;25.80;;;8.80;;
14165;SDS011;7162;52.422;13.754;2023-02-23T12:57:18;29.20;;;9.37;;
14165;SDS011;7162;52.422;13.754;2023-02-23T12:59:54;33.73;;;10.07;;
14165;SDS011;7162;52.422;13.754;2023-02-23T13:02:24;25.13;;;9.97;;
14165;SDS011;7162;52.422;13.754;2023-02-23T13:07:38;24.90;;;9.93;;
14165;SDS011;7162;52.422;13.754;2023-02-23T13:10:13;24.93;;;9.47;;
14165;SDS011;7162;52.422;13.754;2023-02-23T13:12:44;23.07;;;10.37;;
14165;SDS011;7162;52.422;13.754;2023-02-23T13:15:17;26.70;;;9.80;;
14165;SDS011;7162;52.422;13.754;2023-02-23T13:17:48;22.00;;;9.53;;
14165;SDS011;7162;52.422;13.754;2023-02-23T13:20:17;24.23;;;9.40;;
14165;SDS011;7162;52.422;13.754;2023-02-23T13:22:49;26.40;;;10.50;;
14165;SDS011;7162;52.422;13.754;2023-02-23T13:25:21;24.03;;;10.00;;
14165;SDS011;7162;52.422;13.754;2023-02-23T13:27:51;22.00;;;10.70;;
14165;SDS011;7162;52.422;13.754;2023-02-23T13:30:20;25.03;;;10.30;;
14165;SDS011;7162;52.422;13.754;2023-02-23T13:32:47;27.57;;;11.00;;
14165;SDS011;7162;52.422;13.754;2023-02-23T13:35:15;22.07;;;10.07;;
14165;SDS011;7162;52.422;13.754;2023-02-23T13:37:44;28.70;;;11.30;;
14165;SDS011;7162;52.422;13.754;2023-02-23T13:40:15;22.50;;;9.93;;
14165;SDS011;7162;52.422;13.754;2023-02-23T13:42:51;27.07;;;10.07;;
14165;SDS011;7162;52.422;13.754;2023-02-23T13:45:30;21.00;;;10.10;;
14165;SDS011;7162;52.422;13.754;2023-02-23T13:48:03;24.67;;;10.57;;
14165;SDS011;7162;52.422;13.754;2023-02-23T13:50:34;23.97;;;10.10;;
14165;SDS011;7162;52.422;13.754;2023-02-23T13:53:04;19.53;;;10.37;;
14165;SDS011;7162;52.422;13.754;2023-02-23T13:55:33;24.07;;;10.27;;
14165;SDS011;7162;52.422;13.754;2023-02-23T13:58:04;20.03;;;9.80;;
14165;SDS011;7162;52.422;13.754;2023-02-23T14:00:32;19.30;;;9.53;;
14165;SDS011;7162;52.422;13.754;2023-02-23T14:03:01;20.30;;;9.27;;
14165;SDS011;7162;52.422;13.754;2023-02-23T14:05:40;23.37;;;10.60;;
14165;SDS011;7162;52.422;13.754;2023-02-23T14:08:18;25.57;;;10.77;;
14165;SDS011;7162;52.422;13.754;2023-02-23T14:10:46;19.23;;;8.50;;
14165;SDS011;7162;52.422;13.754;2023-02-23T14:13:25;23.90;;;9.90;;
14165;SDS011;7162;52.422;13.754;2023-02-23T14:18:49;24.70;;;10.97;;
14165;SDS011;7162;52.422;13.754;2023-02-23T14:21:21;22.93;;;10.50;;
14165;SDS011;7162;52.422;13.754;2023-02-23T14:23:51;19.50;;;9.27;;
14165;SDS011;7162;52.422;13.754;2023-02-23T14:26:36;28.87;;;10.23;;
14165;SDS011;7162;52.422;13.754;2023-02-23T14:29:10;19.50;;;8.87;;
14165;SDS011;7162;52.422;13.754;2023-02-23T14:31:51;21.00;;;10.10;;
14165;SDS011;7162;52.422;13.754;2023-02-23T14:34:18;24.20;;;9.83;;
14165;SDS011;7162;52.422;13.754;2023-02-23T14:36:46;23.13;;;9.10;;
14165;SDS011;7162;52.422;13.754;2023-02-23T14:39:18;23.37;;;9.57;;
14165;SDS011;7162;52.422;13.754;2023-02-23T14:41:49;26.40;;;10.80;;
14165;SDS011;7162;52.422;13.754;2023-02-23T14:44:19;21.63;;;9.43;;
14165;SDS011;7162;52.422;13.754;2023-02-23T14:46:48;27.20;;;10.17;;
14165;SDS011;7162;52.422;13.754;2023-02-23T14:49:17;26.20;;;9.50;;
14165;SDS011;7162;52.422;13.754;2023-02-23T14:51:45;22.70;;;10.60;;
14165;SDS011;7162;52.422;13.754;2023-02-23T14:54:23;29.93;;;12.20;;
14165;SDS011;7162;52.422;13.754;2023-02-23T14:56:51;21.37;;;10.10;;
14165;SDS011;7162;52.422;13.754;2023-02-23T14:59:20;21.47;;;9.87;;
14165;SDS011;7162;52.422;13.754;2023-02-23T15:01:48;23.57;;;9.80;;
14165;SDS011;7162;52.422;13.754;2023-02-23T15:04:16;20.17;;;9.20;;
14165;SDS011;7162;52.422;13.754;2023-02-23T15:06:43;25.63;;;9.80;;
14165;SDS011;7162;52.422;13.754;2023-02-23T15:09:14;25.70;;;9.10;;
14165;SDS011;7162;52.422;13.754;2023-02-23T15:11:41;31.50;;;10.70;;
14165;SDS011;7162;52.422;13.754;2023-02-23T15:14:10;23.27;;;10.97;;
14165;SDS011;7162;52.422;13.754;2023-02-23T15:16:40;26.03;;;10.67;;